Time;durP1;ratioP1;P1;durP2;ratioP2;P2;SDS_P1;SDS_P2;PMS_P1;PMS_P2;Temp;Humidity;BMP_temperature;BMP_pressure;BME280_temperature;BME280_humidity;BME280_pressure;Samples;Min_cycle;Max_cycle;Signal;HPM_P1;HPM_P2
2023/05/31 00:00:24;;;;;;;1.40;1.10;;;22.90;53.50;;;;;;222766;1268;22663;-53
2023/05/31 00:05:49;;;;;;;0.90;0.90;;;23.00;53.60;;;;;;222544;1268;22522;-50
2023/05/31 00:10:53;;;;;;;1.00;0.90;;;22.90;53.50;;;;;;222632;1262;22634;-55
2023/05/31 00:15:58;;;;;;;1.10;1.00;;;23.00;53.60;;;;;;222556;1263;23913;-55
2023/05/31 00:21:02;;;;;;;0.70;0.70;;;22.90;53.60;;;;;;222573;1269;22725;-51
2023/05/31 00:26:06;;;;;;;0.90;0.90;;;22.90;53.90;;;;;;222449;1268;22526;-52
2023/05/31 00:31:10;;;;;;;1.00;0.90;;;22.80;53.60;;;;;;222596;1268;22518;-57
2023/05/31 00:36:14;;;;;;;1.00;1.00;;;22.80;53.60;;;;;;222478;1268;22553;-54
2023/05/31 00:41:19;;;;;;;1.00;1.00;;;22.80;53.60;;;;;;222574;1268;24187;-50
2023/05/31 00:46:30;;;;;;;0.90;0.70;;;22.80;53.70;;;;;;223287;1245;24331;-48
2023/05/31 00:51:36;;;;;;;1.00;0.80;;;22.80;53.60;;;;;;223514;1264;25326;-53
2023/05/31 00:56:40;;;;;;;1.40;1.00;;;22.80;53.60;;;;;;222452;1267;22522;-53
2023/05/31 01:01:46;;;;;;;1.00;0.90;;;22.70;53.60;;;;;;222482;1268;22538;-52
2023/05/31 01:06:52;;;;;;;1.60;1.10;;;22.70;53.70;;;;;;222376;1268;23912;-52
2023/05/31 01:12:05;;;;;;;1.20;1.00;;;22.70;53.80;;;;;;222748;1265;22521;-54
2023/05/31 01:17:20;;;;;;;1.10;1.00;;;22.70;54.10;;;;;;222631;1262;26637;-53
2023/05/31 01:22:50;;;;;;;1.20;1.10;;;22.60;53.70;;;;;;222375;1261;22697;-53
2023/05/31 01:27:56;;;;;;;1.20;1.10;;;22.60;53.60;;;;;;222566;1268;24194;-52
2023/05/31 01:33:03;;;;;;;1.10;1.10;;;22.60;53.80;;;;;;222747;1262;22520;-53
2023/05/31 01:38:06;;;;;;;1.10;1.10;;;22.60;54.20;;;;;;222602;1267;22530;-54
2023/05/31 01:43:12;;;;;;;1.20;0.90;;;22.60;54.10;;;;;;222370;1268;22517;-54
2023/05/31 01:48:17;;;;;;;1.00;0.90;;;22.60;54.10;;;;;;222448;1265;24786;-52
2023/05/31 01:53:21;;;;;;;1.80;0.90;;;22.50;53.80;;;;;;222622;1268;25384;-54
2023/05/31 01:58:27;;;;;;;0.90;0.90;;;22.50;53.80;;;;;;222514;1268;22506;-55
2023/05/31 02:03:32;;;;;;;1.90;1.10;;;22.50;53.80;;;;;;222623;1268;22766;-52
2023/05/31 02:08:36;;;;;;;1.20;1.10;;;22.50;53.80;;;;;;222477;1268;22498;-54
2023/05/31 02:13:40;;;;;;;1.00;0.90;;;22.50;54.20;;;;;;222404;1268;221657;-57
2023/05/31 02:18:44;;;;;;;1.10;1.00;;;22.50;54.10;;;;;;222355;1268;24334;-52
2023/05/31 02:23:49;;;;;;;1.00;1.00;;;22.50;53.70;;;;;;222410;1265;22533;-51
2023/05/31 02:28:53;;;;;;;2.70;1.20;;;22.40;53.80;;;;;;222666;1262;24337;-51
2023/05/31 02:33:58;;;;;;;1.70;1.00;;;22.40;53.70;;;;;;222435;1268;22586;-51
2023/05/31 02:39:03;;;;;;;0.80;0.80;;;22.40;53.80;;;;;;222898;1264;22522;-52
2023/05/31 02:44:07;;;;;;;0.90;0.90;;;22.40;54.10;;;;;;222653;1260;22518;-50
2023/05/31 02:49:12;;;;;;;1.30;0.90;;;22.40;53.80;;;;;;222571;1268;22510;-52
2023/05/31 02:54:16;;;;;;;1.10;1.10;;;22.40;53.80;;;;;;222771;1267;25509;-52
2023/05/31 02:59:21;;;;;;;1.00;1.00;;;22.40;53.80;;;;;;222262;1268;22639;-52
2023/05/31 03:04:46;;;;;;;0.90;0.90;;;22.40;53.80;;;;;;222566;1266;24290;-53
2023/05/31 03:09:51;;;;;;;0.80;0.80;;;22.30;53.80;;;;;;222590;1268;24229;-51
2023/05/31 03:14:55;;;;;;;1.30;1.10;;;22.30;53.80;;;;;;222622;1267;22528;-54
2023/05/31 03:20:00;;;;;;;1.40;1.30;;;22.30;53.70;;;;;;222441;1268;25810;-51
2023/05/31 03:25:05;;;;;;;1.10;1.00;;;22.30;53.70;;;;;;222576;1266;25281;-52
2023/05/31 03:30:10;;;;;;;1.20;1.10;;;22.30;53.70;;;;;;222688;1262;22506;-51
2023/05/31 03:35:21;;;;;;;1.50;1.40;;;22.30;53.60;;;;;;222618;1268;22535;-53
2023/05/31 03:40:26;;;;;;;1.00;0.90;;;22.30;53.70;;;;;;222543;1268;25336;-51
2023/05/31 03:45:30;;;;;;;1.20;1.10;;;22.30;53.90;;;;;;222451;1268;23919;-51
2023/05/31 03:50:34;;;;;;;1.20;1.10;;;22.20;53.80;;;;;;222401;1250;22885;-54
2023/05/31 03:55:39;;;;;;;1.20;1.10;;;22.20;53.90;;;;;;222522;1268;22498;-55
2023/05/31 04:00:43;;;;;;;0.70;0.70;;;22.20;53.90;;;;;;222589;1268;22554;-54
2023/05/31 04:05:48;;;;;;;1.10;1.00;;;22.30;53.90;;;;;;222732;1262;24609;-53
2023/05/31 04:10:52;;;;;;;1.20;1.10;;;22.20;53.90;;;;;;222710;1266;24361;-52
2023/05/31 04:15:56;;;;;;;1.00;1.00;;;22.20;53.90;;;;;;222600;1265;22516;-56
2023/05/31 04:21:01;;;;;;;0.90;0.90;;;22.20;54.30;;;;;;222536;1268;24255;-54
2023/05/31 04:26:06;;;;;;;1.10;1.10;;;22.20;54.00;;;;;;222474;1264;22520;-55
2023/05/31 04:31:13;;;;;;;1.20;1.20;;;22.20;54.20;;;;;;222355;1268;22520;-52
2023/05/31 04:36:18;;;;;;;1.10;1.00;;;22.20;53.90;;;;;;222187;1265;22569;-53
2023/05/31 04:41:25;;;;;;;0.80;0.80;;;22.20;54.20;;;;;;222307;1269;22648;-51
2023/05/31 04:46:30;;;;;;;0.90;0.90;;;22.20;53.80;;;;;;222301;1267;22633;-51
2023/05/31 04:51:34;;;;;;;1.30;1.20;;;22.20;53.80;;;;;;222226;1269;22806;-53
2023/05/31 04:56:38;;;;;;;1.30;1.20;;;22.20;53.70;;;;;;222127;1269;22648;-52
2023/05/31 05:01:44;;;;;;;1.10;1.00;;;22.20;53.70;;;;;;222184;1269;22504;-54
2023/05/31 05:06:51;;;;;;;1.10;1.10;;;22.30;53.70;;;;;;222249;1269;25285;-53
2023/05/31 05:11:56;;;;;;;1.20;1.10;;;22.30;53.70;;;;;;222088;1269;22626;-51
2023/05/31 05:17:00;;;;;;;1.20;1.10;;;22.30;53.80;;;;;;222199;1268;24079;-52
2023/05/31 05:22:04;;;;;;;1.30;1.20;;;22.30;53.50;;;;;;222231;1268;22514;-52
2023/05/31 05:27:09;;;;;;;1.20;1.10;;;22.30;53.40;;;;;;222187;1269;24135;-55
2023/05/31 05:32:15;;;;;;;0.90;0.80;;;22.30;53.40;;;;;;222402;1268;22818;-55
2023/05/31 05:37:20;;;;;;;1.20;1.10;;;22.30;53.50;;;;;;222608;1268;24305;-52
2023/05/31 05:42:28;;;;;;;0.90;0.90;;;22.30;53.40;;;;;;222407;1264;22515;-53
2023/05/31 05:47:32;;;;;;;1.20;1.10;;;22.30;53.50;;;;;;222505;1268;22508;-51
2023/05/31 05:52:37;;;;;;;1.50;1.30;;;22.30;53.60;;;;;;222507;1268;22614;-53
2023/05/31 05:57:43;;;;;;;1.00;1.00;;;22.30;53.60;;;;;;222633;1268;24194;-51
2023/05/31 06:03:11;;;;;;;0.90;0.90;;;22.30;53.50;;;;;;222339;1268;22515;-52
2023/05/31 06:08:16;;;;;;;1.20;1.10;;;22.30;53.50;;;;;;222791;1268;23502;-52
2023/05/31 06:13:20;;;;;;;1.00;0.90;;;22.30;54.00;;;;;;222660;1268;22508;-54
2023/05/31 06:18:25;;;;;;;1.20;1.10;;;22.30;53.40;;;;;;222613;1268;22537;-52
2023/05/31 06:23:29;;;;;;;1.30;1.20;;;22.40;53.50;;;;;;222529;1268;22629;-50
2023/05/31 06:28:34;;;;;;;0.90;0.90;;;22.40;53.90;;;;;;222816;1268;22516;-53
2023/05/31 06:33:48;;;;;;;1.10;1.00;;;22.40;53.30;;;;;;222559;1268;22522;-51
2023/05/31 06:38:53;;;;;;;1.30;1.20;;;22.40;53.40;;;;;;222473;1266;22514;-54
2023/05/31 06:44:01;;;;;;;0.80;0.80;;;22.40;53.80;;;;;;222610;1266;22526;-53
2023/05/31 06:49:17;;;;;;;1.40;1.30;;;22.40;53.60;;;;;;222784;1268;22508;-53
2023/05/31 06:54:43;;;;;;;1.20;1.10;;;22.40;53.30;;;;;;222427;1268;22656;-53
2023/05/31 06:59:47;;;;;;;1.10;1.10;;;22.50;53.30;;;;;;222669;1268;23713;-53
2023/05/31 07:04:51;;;;;;;1.30;1.00;;;22.50;53.20;;;;;;222547;1265;22509;-54
2023/05/31 07:09:56;;;;;;;1.10;1.00;;;22.50;53.10;;;;;;222454;1268;25116;-48
2023/05/31 07:15:00;;;;;;;0.90;0.90;;;22.50;53.50;;;;;;222447;1268;22515;-58
2023/05/31 07:20:07;;;;;;;0.70;0.70;;;22.60;53.40;;;;;;222507;1268;24170;-54
2023/05/31 07:25:11;;;;;;;1.00;0.90;;;22.60;53.10;;;;;;222660;1266;24307;-50
2023/05/31 07:30:16;;;;;;;1.30;1.10;;;22.50;53.10;;;;;;222320;1268;22547;-52
2023/05/31 07:35:20;;;;;;;0.70;0.70;;;22.60;53.00;;;;;;222610;1268;23011;-53
2023/05/31 07:40:24;;;;;;;1.10;1.00;;;22.60;53.00;;;;;;222630;1268;24373;-53
2023/05/31 07:45:29;;;;;;;1.00;1.00;;;22.70;52.90;;;;;;222407;1261;24173;-53
2023/05/31 07:50:33;;;;;;;1.10;1.00;;;22.70;52.80;;;;;;222726;1268;22540;-53
2023/05/31 07:55:37;;;;;;;0.90;0.90;;;22.70;52.80;;;;;;221019;1275;22640;-50
2023/05/31 08:00:41;;;;;;;1.00;1.00;;;22.70;52.80;;;;;;220978;1275;25461;-52
2023/05/31 08:05:48;;;;;;;1.20;1.10;;;22.70;52.90;;;;;;221019;1275;24077;-56
2023/05/31 08:10:52;;;;;;;1.60;1.00;;;22.80;52.80;;;;;;221214;1268;22510;-52
2023/05/31 08:15:56;;;;;;;1.00;1.00;;;22.80;52.80;;;;;;222584;1268;25384;-57
2023/05/31 08:21:00;;;;;;;1.00;1.00;;;22.80;53.00;;;;;;222746;1268;24178;-54
2023/05/31 08:26:05;;;;;;;1.00;0.90;;;22.80;52.80;;;;;;222328;1268;22524;-53
2023/05/31 08:31:09;;;;;;;0.90;0.90;;;22.90;52.80;;;;;;222661;1266;22510;-51
2023/05/31 08:36:14;;;;;;;1.20;1.10;;;22.90;52.40;;;;;;222543;1245;22559;-50
2023/05/31 08:41:19;;;;;;;0.90;0.90;;;22.90;52.80;;;;;;222556;1268;22917;-49
2023/05/31 08:46:23;;;;;;;1.10;0.90;;;22.90;52.80;;;;;;222723;1262;24233;-54
2023/05/31 08:51:28;;;;;;;1.10;1.00;;;22.90;52.80;;;;;;222539;1268;22511;-52
2023/05/31 08:56:33;;;;;;;1.20;1.10;;;23.00;52.70;;;;;;222758;1268;25317;-53
2023/05/31 09:01:38;;;;;;;0.80;0.80;;;22.90;52.70;;;;;;222671;1268;24881;-51
2023/05/31 09:06:43;;;;;;;1.10;1.00;;;23.00;52.80;;;;;;222656;1268;23380;-52
2023/05/31 09:11:47;;;;;;;0.90;0.90;;;23.00;52.70;;;;;;222662;1267;23429;-50
2023/05/31 09:16:52;;;;;;;1.00;0.80;;;23.00;52.70;;;;;;222392;1268;22515;-53
2023/05/31 09:21:56;;;;;;;0.80;0.80;;;23.00;52.70;;;;;;222625;1268;24858;-55
2023/05/31 09:27:01;;;;;;;0.90;0.80;;;23.00;52.70;;;;;;222714;1268;22605;-56
2023/05/31 09:32:09;;;;;;;0.70;0.70;;;23.00;52.70;;;;;;222431;1268;25227;-53
2023/05/31 09:37:25;;;;;;;1.00;1.00;;;23.10;52.80;;;;;;222674;1252;22591;-52
2023/05/31 09:42:29;;;;;;;0.80;0.80;;;23.10;52.70;;;;;;222310;1268;25268;-51
2023/05/31 09:47:36;;;;;;;1.20;1.10;;;23.10;52.80;;;;;;222692;1266;22630;-48
2023/05/31 09:52:47;;;;;;;1.10;0.80;;;23.10;52.80;;;;;;222670;1268;24385;-55
2023/05/31 09:57:54;;;;;;;1.00;0.90;;;23.10;52.70;;;;;;222532;1268;22510;-53
2023/05/31 10:02:58;;;;;;;1.40;1.30;;;23.10;53.00;;;;;;222598;1268;25211;-52
2023/05/31 10:08:03;;;;;;;0.90;0.80;;;23.20;52.70;;;;;;222540;1268;22518;-53
2023/05/31 10:13:10;;;;;;;1.10;1.10;;;23.20;52.50;;;;;;222713;1268;23872;-51
2023/05/31 10:18:16;;;;;;;0.90;0.90;;;23.30;52.50;;;;;;222423;1268;25602;-55
2023/05/31 10:23:23;;;;;;;0.60;0.60;;;23.30;52.40;;;;;;222659;1265;22523;-51
2023/05/31 10:28:35;;;;;;;0.90;0.90;;;23.30;52.30;;;;;;222627;1268;22526;-54
2023/05/31 10:33:45;;;;;;;1.00;1.00;;;23.40;52.40;;;;;;222571;1268;22514;-55
2023/05/31 10:39:03;;;;;;;0.70;0.70;;;23.40;51.90;;;;;;222698;1268;24183;-54
2023/05/31 10:44:12;;;;;;;0.80;0.80;;;23.40;52.30;;;;;;222387;1268;22569;-50
2023/05/31 10:49:19;;;;;;;0.80;0.80;;;23.40;52.30;;;;;;222640;1268;22515;-51
2023/05/31 10:54:27;;;;;;;0.90;0.90;;;23.40;52.40;;;;;;222599;1268;25394;-53
2023/05/31 10:59:44;;;;;;;0.70;0.70;;;23.40;52.50;;;;;;222595;1268;22508;-49
2023/05/31 11:04:49;;;;;;;0.80;0.80;;;23.40;52.40;;;;;;222692;1266;22515;-52
2023/05/31 11:09:56;;;;;;;0.60;0.60;;;23.50;52.80;;;;;;222763;1268;24175;-53
2023/05/31 11:15:03;;;;;;;0.70;0.70;;;23.40;52.30;;;;;;222824;1268;22550;-54
2023/05/31 11:20:15;;;;;;;1.00;0.90;;;23.60;52.70;;;;;;222386;1268;24349;-53
2023/05/31 11:25:20;;;;;;;0.90;0.90;;;23.50;52.30;;;;;;222552;1268;24219;-53
2023/05/31 11:30:35;;;;;;;0.80;0.80;;;23.60;52.30;;;;;;222662;1268;22627;-57
2023/05/31 11:35:39;;;;;;;0.80;0.80;;;23.60;52.30;;;;;;222614;1268;26548;-51
2023/05/31 11:40:44;;;;;;;1.00;1.00;;;23.60;52.30;;;;;;222224;1268;22626;-57
2023/05/31 11:45:52;;;;;;;0.80;0.80;;;23.60;52.30;;;;;;222574;1268;26585;-53
2023/05/31 11:50:56;;;;;;;0.80;0.80;;;23.70;52.30;;;;;;222410;1268;22633;-52
2023/05/31 11:56:01;;;;;;;0.90;0.90;;;23.60;52.20;;;;;;222507;1267;24391;-51
2023/05/31 12:01:06;;;;;;;0.80;0.70;;;23.70;52.20;;;;;;222547;1268;24207;-51
2023/05/31 12:06:10;;;;;;;0.80;0.80;;;23.70;52.20;;;;;;222883;1268;25374;-54
2023/05/31 12:11:14;;;;;;;1.60;0.80;;;23.70;52.10;;;;;;222589;1268;22664;-51
2023/05/31 12:16:18;;;;;;;0.70;0.70;;;23.80;52.10;;;;;;222194;1268;22529;-54
2023/05/31 12:21:22;;;;;;;1.10;0.80;;;23.80;52.00;;;;;;222685;1268;22646;-50
2023/05/31 12:26:28;;;;;;;0.70;0.70;;;23.80;52.10;;;;;;222391;1268;22526;-48
2023/05/31 12:31:36;;;;;;;0.70;0.70;;;23.80;52.10;;;;;;222531;1268;22619;-49
2023/05/31 12:36:48;;;;;;;0.70;0.70;;;23.80;52.20;;;;;;222634;1268;25244;-50
2023/05/31 12:41:53;;;;;;;0.60;0.60;;;23.90;52.30;;;;;;222406;1268;22547;-52
2023/05/31 12:47:02;;;;;;;0.80;0.80;;;23.80;51.80;;;;;;222713;1266;22531;-51
2023/05/31 12:52:08;;;;;;;0.80;0.80;;;23.80;52.20;;;;;;222485;1268;23161;-53
2023/05/31 12:57:12;;;;;;;0.90;0.90;;;23.90;52.20;;;;;;222562;1269;25213;-52
2023/05/31 13:02:16;;;;;;;0.80;0.80;;;23.90;52.30;;;;;;222472;1267;22509;-53
2023/05/31 13:07:21;;;;;;;0.90;0.80;;;23.90;52.20;;;;;;222597;1269;22557;-53
2023/05/31 13:12:25;;;;;;;0.90;0.90;;;23.90;52.60;;;;;;222635;1269;22507;-55
2023/05/31 13:17:29;;;;;;;1.00;1.00;;;23.90;52.20;;;;;;222053;1269;25676;-53
2023/05/31 13:22:34;;;;;;;0.80;0.80;;;23.90;52.30;;;;;;222402;1269;22520;-53
2023/05/31 13:27:39;;;;;;;0.60;0.60;;;24.00;52.30;;;;;;222493;1269;25319;-53
2023/05/31 13:32:44;;;;;;;0.80;0.80;;;23.90;52.30;;;;;;222825;1268;22517;-53
2023/05/31 13:37:49;;;;;;;0.90;0.90;;;23.90;52.80;;;;;;222311;1268;26154;-50
2023/05/31 13:42:54;;;;;;;0.90;0.90;;;23.90;52.30;;;;;;222650;1268;22530;-52
2023/05/31 13:47:58;;;;;;;0.60;0.60;;;24.00;52.80;;;;;;222719;1268;24188;-53
2023/05/31 13:53:02;;;;;;;0.60;0.60;;;24.00;52.40;;;;;;222645;1244;22579;-52
2023/05/31 13:58:06;;;;;;;0.80;0.80;;;24.00;52.40;;;;;;222404;1268;22519;-53
2023/05/31 14:03:11;;;;;;;0.70;0.70;;;24.00;52.40;;;;;;222505;1268;23820;-53
2023/05/31 14:08:16;;;;;;;1.20;1.10;;;23.90;52.40;;;;;;222511;1268;24247;-54
2023/05/31 14:13:20;;;;;;;0.80;0.80;;;24.00;52.50;;;;;;222692;1260;273415;-55
2023/05/31 14:18:24;;;;;;;1.00;0.70;;;24.00;52.50;;;;;;222601;1268;23872;-54
2023/05/31 14:23:28;;;;;;;0.60;0.60;;;24.00;52.60;;;;;;222351;1268;25305;-53
2023/05/31 14:28:33;;;;;;;0.70;0.70;;;24.00;52.60;;;;;;222563;1267;22517;-51
2023/05/31 14:33:40;;;;;;;0.70;0.70;;;24.00;52.60;;;;;;222188;1269;25390;-49
2023/05/31 14:38:44;;;;;;;0.80;0.80;;;24.00;52.60;;;;;;222281;1269;22516;-53
2023/05/31 14:43:49;;;;;;;0.70;0.70;;;24.00;53.00;;;;;;222253;1269;22518;-53
2023/05/31 14:48:53;;;;;;;0.90;0.90;;;24.00;53.30;;;;;;222109;1263;23952;-49
2023/05/31 14:53:57;;;;;;;0.60;0.60;;;24.00;52.90;;;;;;222132;1269;22527;-50
2023/05/31 14:59:01;;;;;;;0.80;0.80;;;24.00;53.10;;;;;;222260;1269;22516;-53
2023/05/31 15:04:05;;;;;;;0.60;0.60;;;24.00;52.90;;;;;;222435;1267;22782;-54
2023/05/31 15:09:10;;;;;;;0.70;0.70;;;24.00;52.90;;;;;;222406;1269;22585;-51
2023/05/31 15:14:15;;;;;;;0.60;0.60;;;24.00;53.00;;;;;;222573;1264;22716;-55
2023/05/31 15:19:19;;;;;;;0.70;0.70;;;24.00;53.40;;;;;;222080;1269;24235;-53
2023/05/31 15:24:23;;;;;;;0.80;0.80;;;24.00;53.00;;;;;;222303;1269;22598;-51
2023/05/31 15:29:29;;;;;;;0.70;0.70;;;24.00;52.70;;;;;;222121;1269;22573;-50
2023/05/31 15:34:33;;;;;;;0.60;0.60;;;24.00;53.30;;;;;;222340;1269;24090;-53
2023/05/31 15:39:38;;;;;;;0.80;0.80;;;24.00;53.10;;;;;;222396;1269;25474;-53
2023/05/31 15:44:42;;;;;;;0.70;0.70;;;24.00;53.70;;;;;;222522;1269;22808;-52
2023/05/31 15:49:47;;;;;;;0.90;0.70;;;24.00;53.10;;;;;;222517;1269;25337;-54
2023/05/31 15:54:51;;;;;;;0.60;0.60;;;24.10;53.00;;;;;;222481;1267;22913;-52
2023/05/31 15:59:55;;;;;;;0.80;0.80;;;24.10;53.30;;;;;;222046;1270;23023;-51
2023/05/31 16:05:00;;;;;;;0.60;0.60;;;24.10;53.20;;;;;;222120;1248;24186;-53
2023/05/31 16:10:05;;;;;;;0.60;0.60;;;24.10;53.30;;;;;;222171;1270;25567;-51
2023/05/31 16:15:10;;;;;;;0.50;0.50;;;24.00;53.30;;;;;;221971;1270;22808;-52
2023/05/31 16:20:14;;;;;;;0.80;0.80;;;24.00;53.30;;;;;;222180;1267;22514;-53
2023/05/31 16:25:19;;;;;;;0.90;0.70;;;23.90;53.60;;;;;;221953;1270;22528;-54
2023/05/31 16:30:23;;;;;;;0.60;0.60;;;23.90;53.40;;;;;;222229;1246;24194;-52
2023/05/31 16:35:27;;;;;;;0.60;0.60;;;23.90;53.30;;;;;;222243;1269;24212;-53
2023/05/31 16:40:31;;;;;;;0.70;0.70;;;23.90;53.20;;;;;;222043;1269;22709;-52
2023/05/31 16:45:36;;;;;;;0.70;0.70;;;23.90;53.20;;;;;;222048;1269;22644;-53
2023/05/31 16:50:40;;;;;;;0.70;0.60;;;23.90;53.20;;;;;;222321;1269;22537;-53
2023/05/31 16:55:44;;;;;;;0.80;0.80;;;23.90;53.20;;;;;;222341;1267;23633;-55
2023/05/31 17:00:48;;;;;;;0.60;0.60;;;23.90;53.30;;;;;;222414;1269;22524;-51
2023/05/31 17:05:53;;;;;;;0.50;0.50;;;23.90;53.20;;;;;;222290;1268;22641;-54
2023/05/31 17:10:57;;;;;;;0.80;0.70;;;23.90;53.60;;;;;;222361;1264;22523;-52
2023/05/31 17:16:01;;;;;;;0.60;0.60;;;23.90;53.60;;;;;;222081;1266;22640;-53
2023/05/31 17:21:06;;;;;;;0.80;0.70;;;23.90;53.30;;;;;;222779;1268;22542;-52
2023/05/31 17:26:10;;;;;;;0.70;0.70;;;23.90;53.60;;;;;;222074;1268;24183;-53
2023/05/31 17:31:14;;;;;;;0.70;0.70;;;23.90;53.30;;;;;;222421;1267;23889;-53
2023/05/31 17:36:18;;;;;;;0.50;0.50;;;23.90;53.20;;;;;;222155;1269;22527;-53
2023/05/31 17:41:23;;;;;;;0.60;0.60;;;23.90;53.30;;;;;;222064;1269;24146;-53
2023/05/31 17:46:27;;;;;;;0.60;0.60;;;23.90;53.20;;;;;;222349;1269;24333;-54
2023/05/31 17:51:32;;;;;;;0.50;0.50;;;23.80;53.20;;;;;;222295;1263;24206;-50
2023/05/31 17:56:37;;;;;;;0.60;0.60;;;23.90;53.20;;;;;;222070;1268;22525;-53
2023/05/31 18:01:44;;;;;;;0.70;0.70;;;23.90;53.20;;;;;;222529;1265;22528;-54
2023/05/31 18:06:50;;;;;;;0.70;0.70;;;23.80;53.20;;;;;;222628;1268;22750;-55
2023/05/31 18:11:57;;;;;;;0.50;0.50;;;23.80;53.30;;;;;;222514;1268;22510;-53
2023/05/31 18:17:01;;;;;;;0.50;0.50;;;23.80;53.60;;;;;;222450;1268;23694;-52
2023/05/31 18:22:06;;;;;;;0.70;0.70;;;23.80;53.10;;;;;;222568;1268;22633;-51
2023/05/31 18:27:20;;;;;;;0.60;0.60;;;23.90;53.50;;;;;;222567;1264;25598;-50
2023/05/31 18:32:25;;;;;;;0.60;0.60;;;23.80;53.20;;;;;;222231;1265;22641;-50
2023/05/31 18:37:29;;;;;;;0.70;0.70;;;23.80;53.20;;;;;;222325;1262;25319;-54
2023/05/31 18:42:33;;;;;;;0.70;0.70;;;23.80;53.20;;;;;;222609;1268;22570;-53
2023/05/31 18:47:38;;;;;;;0.80;0.80;;;23.80;53.60;;;;;;222653;1264;24225;-50
2023/05/31 18:52:42;;;;;;;0.60;0.60;;;23.80;53.40;;;;;;222684;1268;24215;-51
2023/05/31 18:57:50;;;;;;;0.70;0.70;;;23.80;53.90;;;;;;222474;1268;22589;-54
2023/05/31 19:02:54;;;;;;;0.50;0.50;;;23.70;53.60;;;;;;222368;1268;22656;-56
2023/05/31 19:07:59;;;;;;;0.70;0.70;;;23.70;53.30;;;;;;222990;1268;23878;-55
2023/05/31 19:13:03;;;;;;;0.70;0.60;;;23.80;53.30;;;;;;222508;1268;22514;-51
2023/05/31 19:18:07;;;;;;;1.90;0.60;;;23.70;53.70;;;;;;222509;1268;22527;-53
2023/05/31 19:23:22;;;;;;;0.60;0.60;;;23.70;53.40;;;;;;222459;1268;22810;-55
2023/05/31 19:28:26;;;;;;;0.70;0.70;;;23.70;53.40;;;;;;222457;1268;24259;-54
2023/05/31 19:33:33;;;;;;;0.70;0.70;;;23.70;53.40;;;;;;222118;1269;25503;-53
2023/05/31 19:38:37;;;;;;;1.30;0.90;;;23.70;53.50;;;;;;222406;1267;23979;-54
2023/05/31 19:43:41;;;;;;;0.80;0.80;;;23.70;53.60;;;;;;222292;1269;22511;-51
2023/05/31 19:48:46;;;;;;;0.90;0.60;;;23.60;53.60;;;;;;222401;1269;22843;-50
2023/05/31 19:53:50;;;;;;;0.60;0.60;;;23.60;53.80;;;;;;222169;1269;22518;-53
2023/05/31 19:58:54;;;;;;;0.80;0.80;;;23.60;53.70;;;;;;222435;1269;23095;-51
2023/05/31 20:03:59;;;;;;;0.80;0.80;;;23.60;53.70;;;;;;222485;1269;23906;-53
2023/05/31 20:09:03;;;;;;;0.70;0.70;;;23.60;53.70;;;;;;222316;1247;24065;-53
2023/05/31 20:14:09;;;;;;;0.80;0.80;;;23.60;53.70;;;;;;222414;1268;22524;-50
2023/05/31 20:19:16;;;;;;;0.80;0.80;;;23.60;54.10;;;;;;222402;1269;22563;-58
2023/05/31 20:24:20;;;;;;;0.80;0.70;;;23.60;53.80;;;;;;222290;1269;25216;-52
2023/05/31 20:29:25;;;;;;;1.00;0.80;;;23.60;53.80;;;;;;222310;1268;22538;-55
2023/05/31 20:34:34;;;;;;;1.10;1.10;;;23.60;53.80;;;;;;222855;1264;22586;-56
2023/05/31 20:39:38;;;;;;;0.90;0.90;;;23.60;54.00;;;;;;222569;1267;22518;-52
2023/05/31 20:44:43;;;;;;;1.10;1.00;;;23.50;54.20;;;;;;222371;1268;23909;-51
2023/05/31 20:49:48;;;;;;;1.10;0.90;;;23.50;53.90;;;;;;222630;1268;24187;-50
2023/05/31 20:54:52;;;;;;;0.80;0.80;;;23.50;54.00;;;;;;222241;1268;22507;-53
2023/05/31 20:59:56;;;;;;;0.60;0.60;;;23.50;54.00;;;;;;222513;1264;22647;-54
2023/05/31 21:05:01;;;;;;;0.70;0.70;;;23.40;54.00;;;;;;222757;1268;25256;-55
2023/05/31 21:10:06;;;;;;;1.00;0.90;;;23.40;54.10;;;;;;222644;1268;24369;-54
2023/05/31 21:15:10;;;;;;;0.70;0.70;;;23.40;54.00;;;;;;222707;1268;22570;-57
2023/05/31 21:20:15;;;;;;;0.60;0.60;;;23.40;54.00;;;;;;222605;1268;22507;-51
2023/05/31 21:25:23;;;;;;;0.60;0.50;;;23.40;54.10;;;;;;222951;1266;22643;-51
2023/05/31 21:30:26;;;;;;;0.90;0.90;;;23.40;54.20;;;;;;222391;1265;22558;-55
2023/05/31 21:35:31;;;;;;;0.80;0.80;;;23.40;53.60;;;;;;222094;1269;22585;-51
2023/05/31 21:40:35;;;;;;;2.70;0.90;;;23.40;54.20;;;;;;222382;1269;24256;-54
2023/05/31 21:45:39;;;;;;;0.90;0.90;;;23.40;54.20;;;;;;222131;1269;25106;-51
2023/05/31 21:50:43;;;;;;;0.80;0.80;;;23.30;54.10;;;;;;222474;1268;23942;-52
2023/05/31 21:55:48;;;;;;;1.40;1.10;;;23.30;54.30;;;;;;222285;1269;24046;-52
2023/05/31 22:00:52;;;;;;;0.90;0.90;;;23.30;54.30;;;;;;222403;1269;23971;-50
2023/05/31 22:05:56;;;;;;;0.90;0.90;;;23.30;54.30;;;;;;222403;1269;22633;-52
2023/05/31 22:11:01;;;;;;;1.10;1.00;;;23.30;54.30;;;;;;222253;1269;23048;-52
2023/05/31 22:16:10;;;;;;;0.90;0.90;;;23.30;54.60;;;;;;222243;1269;22535;-52
2023/05/31 22:21:20;;;;;;;1.10;0.90;;;23.30;54.60;;;;;;222308;1269;23537;-55
2023/05/31 22:26:24;;;;;;;1.70;0.90;;;23.30;54.40;;;;;;222617;1267;25218;-54
2023/05/31 22:31:29;;;;;;;1.10;1.00;;;23.30;54.40;;;;;;222548;1268;24081;-52
2023/05/31 22:36:34;;;;;;;1.00;0.90;;;23.20;54.40;;;;;;222814;1268;24229;-51
2023/05/31 22:41:39;;;;;;;0.90;0.90;;;23.20;54.40;;;;;;222424;1267;22523;-52
2023/05/31 22:46:45;;;;;;;1.00;0.90;;;23.20;54.50;;;;;;222737;1266;22524;-55
2023/05/31 22:51:50;;;;;;;1.00;0.90;;;23.20;54.80;;;;;;222593;1268;23642;-51
2023/05/31 22:56:54;;;;;;;0.80;0.80;;;23.20;54.50;;;;;;222795;1262;22775;-52
2023/05/31 23:01:58;;;;;;;1.10;1.00;;;23.20;54.50;;;;;;222341;1269;22714;-53
2023/05/31 23:07:05;;;;;;;1.10;1.00;;;23.10;54.50;;;;;;222591;1268;23005;-55
2023/05/31 23:12:09;;;;;;;1.00;0.80;;;23.10;54.50;;;;;;222697;1263;24276;-52
2023/05/31 23:17:16;;;;;;;0.80;0.80;;;23.10;54.50;;;;;;222821;1268;25200;-53
2023/05/31 23:22:20;;;;;;;1.40;1.00;;;23.10;54.50;;;;;;222561;1268;22514;-51
2023/05/31 23:27:25;;;;;;;0.90;0.90;;;23.10;54.90;;;;;;222572;1268;22730;-51
2023/05/31 23:32:29;;;;;;;1.10;1.00;;;23.10;54.50;;;;;;222496;1266;22508;-56
2023/05/31 23:37:33;;;;;;;1.10;1.00;;;23.10;54.50;;;;;;222647;1268;22509;-54
2023/05/31 23:42:37;;;;;;;1.10;1.00;;;23.10;54.60;;;;;;222572;1268;22816;-55
2023/05/31 23:47:41;;;;;;;1.00;0.90;;;23.10;54.50;;;;;;222671;1261;22574;-53
2023/05/31 23:52:45;;;;;;;1.50;1.40;;;23.10;54.50;;;;;;222650;1268;22508;-52
2023/05/31 23:57:50;;;;;;;1.00;1.00;;;23.10;54.40;;;;;;222566;1268;24484;-53
